Time;durP1;ratioP1;P1;durP2;ratioP2;P2;SDS_P1;SDS_P2;PMS_P1;PMS_P2;Temp;Humidity;BMP_temperature;BMP_pressure;BME280_temperature;BME280_humidity;BME280_pressure;Samples;Min_cycle;Max_cycle;Signal;HPM_P1;HPM_P2
2023/06/14 00:01:53;;;;;;;4.33;2.53;;;16.50;99.90;;;;;;5130668;28;20503;-54
2023/06/14 00:04:21;;;;;;;4.83;1.80;;;16.50;99.90;;;;;;5128719;28;20477;-54
2023/06/14 00:06:50;;;;;;;2.90;2.00;;;16.10;99.90;;;;;;5128611;28;21032;-54
2023/06/14 00:09:17;;;;;;;3.80;2.67;;;16.50;99.90;;;;;;5128355;28;20455;-56
2023/06/14 00:11:45;;;;;;;4.23;2.17;;;16.60;99.90;;;;;;5128506;28;20461;-55
2023/06/14 00:14:11;;;;;;;4.80;2.73;;;16.60;99.90;;;;;;5128593;28;20456;-55
2023/06/14 00:16:42;;;;;;;3.20;2.17;;;16.20;99.90;;;;;;5127868;28;20472;-55
2023/06/14 00:19:10;;;;;;;5.17;2.20;;;16.30;99.90;;;;;;5128656;28;20455;-55
2023/06/14 00:21:40;;;;;;;6.00;2.40;;;16.40;99.90;;;;;;5126690;28;20469;-54
2023/06/14 00:24:08;;;;;;;2.37;2.10;;;16.30;99.90;;;;;;5107811;28;20509;-56
2023/06/14 00:26:35;;;;;;;3.83;1.90;;;16.40;99.90;;;;;;5123520;28;20507;-53
2023/06/14 00:29:02;;;;;;;3.93;2.30;;;15.80;99.90;;;;;;5128362;28;20487;-51
2023/06/14 00:31:29;;;;;;;4.57;4.13;;;16.30;99.90;;;;;;5127885;28;20468;-56
2023/06/14 00:33:57;;;;;;;2.53;2.10;;;16.10;99.90;;;;;;5127651;28;20476;-55
2023/06/14 00:36:24;;;;;;;4.80;2.87;;;16.10;99.90;;;;;;5128175;28;20448;-53
2023/06/14 00:38:51;;;;;;;3.50;2.07;;;16.20;99.90;;;;;;5128059;28;20731;-55
2023/06/14 00:41:18;;;;;;;5.07;2.63;;;16.20;99.90;;;;;;5128218;28;20476;-52
2023/06/14 00:43:44;;;;;;;3.87;2.60;;;16.10;99.90;;;;;;5127760;28;20531;-55
2023/06/14 00:46:14;;;;;;;5.33;2.50;;;16.40;99.90;;;;;;5129032;28;20487;-54
2023/06/14 00:48:41;;;;;;;2.37;1.93;;;16.10;99.90;;;;;;5128661;28;20464;-51
2023/06/14 00:51:10;;;;;;;5.40;2.37;;;16.20;99.90;;;;;;5128320;28;20457;-55
2023/06/14 00:53:39;;;;;;;2.47;2.10;;;16.20;99.90;;;;;;5129272;28;20420;-53
2023/06/14 00:56:06;;;;;;;3.20;2.23;;;16.10;99.90;;;;;;5128301;28;20814;-50
2023/06/14 00:58:34;;;;;;;3.87;2.77;;;15.90;99.90;;;;;;5129129;28;21026;-49
2023/06/14 01:01:02;;;;;;;4.83;2.60;;;;;;;;;;5129293;28;20457;-55
2023/06/14 01:03:29;;;;;;;13.10;3.23;;;16.00;99.90;;;;;;5128021;28;20455;-54
2023/06/14 01:06:06;;;;;;;3.50;2.53;;;16.10;99.90;;;;;;5128004;28;20469;-53
2023/06/14 01:08:47;;;;;;;5.70;3.03;;;16.00;99.90;;;;;;5108864;28;20488;-55
2023/06/14 01:11:22;;;;;;;4.10;2.70;;;16.00;99.90;;;;;;5117872;28;20489;-55
2023/06/14 01:13:51;;;;;;;4.20;2.73;;;16.10;99.90;;;;;;5119276;28;20464;-49
2023/06/14 01:16:18;;;;;;;6.50;2.87;;;15.80;99.90;;;;;;5126625;28;20520;-53
2023/06/14 01:18:47;;;;;;;2.53;2.23;;;;;;;;;;5125321;28;20456;-54
2023/06/14 01:21:22;;;;;;;4.90;2.80;;;15.80;99.90;;;;;;5122644;28;20456;-51
2023/06/14 01:23:52;;;;;;;4.63;2.90;;;16.00;99.90;;;;;;5109298;28;20485;-55
2023/06/14 01:26:19;;;;;;;3.27;2.80;;;;;;;;;;5107734;28;20437;-55
2023/06/14 01:28:48;;;;;;;5.30;3.33;;;;;;;;;;5122112;28;20456;-55
2023/06/14 01:31:18;;;;;;;3.10;2.80;;;15.80;99.90;;;;;;5123501;28;20447;-54
2023/06/14 01:33:46;;;;;;;4.30;2.57;;;15.80;99.90;;;;;;5119143;28;20488;-56
2023/06/14 01:36:14;;;;;;;7.43;3.47;;;15.60;99.90;;;;;;5124127;28;20544;-55
2023/06/14 01:38:42;;;;;;;3.10;2.70;;;15.70;99.90;;;;;;5119531;28;20555;-52
2023/06/14 01:41:12;;;;;;;4.17;3.30;;;15.20;99.90;;;;;;5107398;28;20484;-51
2023/06/14 01:43:43;;;;;;;4.80;3.27;;;15.60;99.90;;;;;;5109172;28;20481;-50
2023/06/14 01:46:13;;;;;;;3.90;3.17;;;15.80;99.90;;;;;;5123661;28;20505;-50
2023/06/14 01:48:40;;;;;;;3.90;2.80;;;16.40;99.90;;;;;;5131571;28;20465;-52
2023/06/14 01:51:07;;;;;;;5.30;3.17;;;;;;;;;;5132568;28;20965;-53
2023/06/14 01:53:34;;;;;;;4.53;3.50;;;15.80;99.90;;;;;;5131922;28;20456;-53
2023/06/14 01:56:01;;;;;;;8.03;3.50;;;;;;;;;;5132809;28;20472;-53
2023/06/14 01:58:32;;;;;;;6.93;3.80;;;15.70;99.90;;;;;;5132648;28;20438;-49
2023/06/14 02:01:00;;;;;;;5.33;2.80;;;15.50;99.90;;;;;;5132415;28;20490;-55
2023/06/14 02:03:27;;;;;;;10.60;3.10;;;15.60;99.90;;;;;;5132710;28;20436;-52
2023/06/14 02:05:55;;;;;;;4.10;2.87;;;;;;;;;;5132427;28;20479;-56
2023/06/14 02:08:22;;;;;;;4.07;3.43;;;15.80;99.90;;;;;;5132680;28;20471;-53
2023/06/14 02:10:49;;;;;;;4.03;3.00;;;15.40;99.90;;;;;;5133068;28;20499;-55
2023/06/14 02:13:16;;;;;;;4.13;2.93;;;15.40;99.90;;;;;;5131189;28;20495;-53
2023/06/14 02:15:44;;;;;;;6.50;3.40;;;15.10;99.90;;;;;;5120220;28;20516;-50
2023/06/14 02:18:12;;;;;;;4.10;3.20;;;;;;;;;;5135500;28;20444;-52
2023/06/14 02:20:41;;;;;;;3.97;3.13;;;15.60;99.90;;;;;;5134503;28;20429;-52
2023/06/14 02:23:07;;;;;;;6.00;3.50;;;15.30;99.90;;;;;;5131193;28;20523;-55
2023/06/14 02:25:35;;;;;;;3.30;2.83;;;15.50;99.90;;;;;;5131444;28;20499;-53
2023/06/14 02:28:02;;;;;;;3.27;2.90;;;15.30;99.90;;;;;;5131922;28;20440;-54
2023/06/14 02:30:29;;;;;;;7.40;4.20;;;;;;;;;;5132069;28;20429;-54
2023/06/14 02:32:57;;;;;;;4.40;3.50;;;15.50;99.90;;;;;;5133029;28;20498;-55
2023/06/14 02:35:26;;;;;;;5.53;4.03;;;15.60;99.90;;;;;;5132486;28;20477;-54
2023/06/14 02:37:53;;;;;;;4.40;3.60;;;15.30;99.90;;;;;;5132443;28;20500;-53
2023/06/14 02:40:20;;;;;;;5.67;3.27;;;15.50;99.90;;;;;;5136761;28;20455;-51
2023/06/14 02:42:47;;;;;;;4.00;3.57;;;;;;;;;;5133514;28;20467;-52
2023/06/14 02:45:17;;;;;;;4.97;3.80;;;15.70;99.90;;;;;;5132423;28;20480;-55
2023/06/14 02:47:44;;;;;;;6.00;3.60;;;15.40;99.90;;;;;;5132219;28;20441;-53
2023/06/14 02:50:12;;;;;;;5.20;3.67;;;15.30;99.90;;;;;;5128752;28;20532;-50
2023/06/14 02:52:41;;;;;;;4.50;3.60;;;;;;;;;;5123381;28;20430;-53
2023/06/14 02:55:10;;;;;;;11.17;3.80;;;15.50;99.90;;;;;;5125196;28;20431;-53
2023/06/14 02:57:37;;;;;;;5.83;3.70;;;15.20;99.90;;;;;;5132813;28;20468;-52
2023/06/14 03:00:08;;;;;;;6.93;4.27;;;15.40;99.90;;;;;;5131836;28;20520;-52
2023/06/14 03:02:35;;;;;;;4.37;3.93;;;16.10;99.90;;;;;;5132695;28;20769;-53
2023/06/14 03:05:07;;;;;;;8.43;3.93;;;15.50;99.90;;;;;;5125626;28;20802;-55
2023/06/14 03:07:35;;;;;;;5.03;3.40;;;15.60;99.90;;;;;;5123731;28;20499;-55
2023/06/14 03:10:03;;;;;;;5.63;3.80;;;;;;;;;;5123439;28;21208;-53
2023/06/14 03:12:31;;;;;;;4.37;3.33;;;15.30;99.90;;;;;;5123560;28;20459;-55
2023/06/14 03:15:01;;;;;;;17.23;3.83;;;;;;;;;;5122030;28;20506;-55
2023/06/14 03:17:29;;;;;;;7.23;4.30;;;;;;;;;;5102933;28;20494;-54
2023/06/14 03:19:57;;;;;;;8.70;2.93;;;;;;;;;;5102896;28;20471;-54
2023/06/14 03:22:25;;;;;;;5.77;4.23;;;15.30;99.90;;;;;;5102401;28;21132;-54
2023/06/14 03:24:54;;;;;;;5.33;3.70;;;15.40;99.90;;;;;;5105561;28;20481;-54
2023/06/14 03:27:20;;;;;;;10.03;4.20;;;15.30;99.90;;;;;;5102897;28;20494;-54
2023/06/14 03:29:47;;;;;;;7.80;4.07;;;15.30;99.90;;;;;;5102836;28;20488;-51
2023/06/14 03:32:14;;;;;;;3.83;3.50;;;15.20;99.90;;;;;;5102458;28;20449;-51
2023/06/14 03:34:42;;;;;;;7.10;4.80;;;;;;;;;;5102245;28;20920;-53
2023/06/14 03:37:09;;;;;;;5.50;3.67;;;;;;;;;;5102008;28;20460;-52
2023/06/14 03:39:37;;;;;;;5.57;4.40;;;15.30;99.90;;;;;;5102731;28;20484;-52
2023/06/14 03:42:06;;;;;;;7.17;4.33;;;15.40;99.90;;;;;;5102258;28;20516;-54
2023/06/14 03:44:34;;;;;;;6.27;4.77;;;;;;;;;;5102272;28;20477;-50
2023/06/14 03:47:00;;;;;;;5.00;3.77;;;15.20;99.90;;;;;;5120690;28;20471;-56
2023/06/14 03:49:27;;;;;;;8.87;4.83;;;15.30;99.90;;;;;;5132716;28;20491;-54
2023/06/14 03:51:55;;;;;;;5.17;4.10;;;;;;;;;;5123258;28;20436;-54
2023/06/14 03:54:22;;;;;;;5.70;4.30;;;;;;;;;;5122185;28;20441;-55
2023/06/14 03:56:49;;;;;;;5.27;4.10;;;;;;;;;;5122448;28;20928;-55
2023/06/14 03:59:17;;;;;;;5.00;3.70;;;15.40;99.90;;;;;;5122192;28;20460;-55
2023/06/14 04:01:46;;;;;;;9.83;4.30;;;;;;;;;;5122141;28;20480;-55
2023/06/14 04:04:16;;;;;;;4.30;3.57;;;15.60;99.90;;;;;;5122311;28;20535;-55
2023/06/14 04:06:43;;;;;;;6.93;4.43;;;;;;;;;;5120909;28;20544;-55
2023/06/14 04:09:10;;;;;;;6.30;4.40;;;15.50;99.90;;;;;;5121353;28;20527;-52
2023/06/14 04:11:39;;;;;;;5.07;4.60;;;15.60;99.90;;;;;;5121992;28;20474;-53
2023/06/14 04:14:08;;;;;;;5.00;4.13;;;15.80;99.90;;;;;;5121440;28;20520;-56
2023/06/14 04:16:36;;;;;;;8.90;4.03;;;15.70;99.90;;;;;;5106568;28;20484;-55
2023/06/14 04:19:03;;;;;;;6.00;4.67;;;16.10;99.90;;;;;;5101061;28;20462;-54
2023/06/14 04:21:30;;;;;;;9.00;4.73;;;15.90;99.90;;;;;;5100967;28;20545;-56
2023/06/14 04:23:57;;;;;;;6.20;3.80;;;;;;;;;;5120793;28;20472;-57
2023/06/14 04:26:29;;;;;;;8.83;4.80;;;15.50;99.90;;;;;;5121137;28;20480;-55
2023/06/14 04:29:01;;;;;;;7.50;6.80;;;15.90;99.90;;;;;;5120391;28;20425;-57
2023/06/14 04:31:29;;;;;;;9.77;4.70;;;15.70;99.90;;;;;;5120127;28;20519;-53
2023/06/14 04:33:59;;;;;;;6.00;4.63;;;15.90;99.90;;;;;;5121060;28;20463;-55
2023/06/14 04:36:29;;;;;;;11.20;4.30;;;16.00;99.90;;;;;;5123658;28;20479;-54
2023/06/14 04:38:55;;;;;;;7.53;4.67;;;15.30;99.90;;;;;;5124805;28;20437;-55
2023/06/14 04:41:22;;;;;;;8.60;4.70;;;16.40;99.90;;;;;;5123965;28;20449;-52
2023/06/14 04:43:49;;;;;;;8.00;4.80;;;16.20;99.90;;;;;;5123705;28;20444;-55
2023/06/14 04:46:17;;;;;;;7.70;5.50;;;16.20;99.90;;;;;;5122805;28;20572;-54
2023/06/14 04:48:43;;;;;;;5.47;4.03;;;16.00;99.90;;;;;;5124514;28;20527;-54
2023/06/14 04:51:13;;;;;;;7.47;4.87;;;16.30;99.90;;;;;;5122592;28;20425;-55
2023/06/14 04:53:40;;;;;;;12.73;5.27;;;;;;;;;;5124213;28;20449;-54
2023/06/14 04:56:07;;;;;;;8.13;4.97;;;;;;;;;;5123214;28;20543;-55
2023/06/14 04:58:34;;;;;;;9.13;4.57;;;16.40;99.90;;;;;;5122403;28;20525;-53
2023/06/14 05:01:02;;;;;;;5.43;4.37;;;16.30;99.90;;;;;;5121520;28;20535;-51
2023/06/14 05:03:30;;;;;;;8.93;5.13;;;16.30;99.90;;;;;;5122792;28;20429;-52
2023/06/14 05:05:57;;;;;;;17.30;5.63;;;16.60;99.90;;;;;;5122503;28;20488;-55
2023/06/14 05:08:25;;;;;;;8.33;5.33;;;16.40;99.90;;;;;;5122899;28;20818;-54
2023/06/14 05:10:52;;;;;;;5.73;4.00;;;16.50;99.90;;;;;;5123258;28;20833;-53
2023/06/14 05:13:21;;;;;;;8.83;4.53;;;16.80;99.90;;;;;;5121452;28;20451;-52
2023/06/14 05:15:48;;;;;;;8.47;5.47;;;16.60;99.90;;;;;;5119531;28;20512;-56
2023/06/14 05:18:17;;;;;;;8.17;4.60;;;16.70;99.90;;;;;;5119403;28;20542;-51
2023/06/14 05:20:44;;;;;;;7.23;4.70;;;16.80;99.90;;;;;;5118865;28;20475;-52
2023/06/14 05:23:14;;;;;;;6.87;4.73;;;17.00;99.90;;;;;;5121064;28;20467;-55
2023/06/14 05:25:44;;;;;;;13.60;5.07;;;17.00;99.90;;;;;;5125669;28;20487;-52
2023/06/14 05:28:12;;;;;;;7.37;4.67;;;17.30;99.90;;;;;;5125857;28;20447;-54
2023/06/14 05:30:39;;;;;;;6.20;4.40;;;17.20;99.90;;;;;;5125020;28;20552;-55
2023/06/14 05:33:06;;;;;;;7.10;5.30;;;17.40;99.90;;;;;;5125491;28;20465;-53
2023/06/14 05:35:34;;;;;;;12.77;4.43;;;;;;;;;;5125207;28;20444;-54
2023/06/14 05:38:02;;;;;;;6.10;4.63;;;;;;;;;;5119612;28;20448;-53
2023/06/14 05:40:29;;;;;;;6.10;4.63;;;;;;;;;;5112936;28;20548;-55
2023/06/14 05:42:57;;;;;;;5.77;4.30;;;17.70;99.90;;;;;;5118316;28;20502;-55
2023/06/14 05:45:24;;;;;;;5.80;4.50;;;;;;;;;;5101918;28;20480;-53
2023/06/14 05:47:52;;;;;;;5.97;4.27;;;;;;;;;;5117584;28;20453;-55
2023/06/14 05:50:19;;;;;;;13.63;6.10;;;;;;;;;;5118764;28;20991;-51
2023/06/14 05:52:46;;;;;;;12.63;4.30;;;;;;;;;;5117014;28;20448;-49
2023/06/14 05:55:13;;;;;;;6.70;4.37;;;;;;;;;;5115841;28;20573;-52
2023/06/14 05:57:41;;;;;;;9.70;6.90;;;;;;;;;;5117373;28;20532;-52
2023/06/14 06:00:14;;;;;;;8.23;4.87;;;17.90;99.90;;;;;;5098812;28;20473;-53
2023/06/14 06:02:41;;;;;;;7.60;4.53;;;17.80;99.90;;;;;;5103395;28;20829;-52
2023/06/14 06:05:08;;;;;;;6.20;4.30;;;17.80;99.90;;;;;;5111740;28;20770;-49
2023/06/14 06:07:35;;;;;;;5.50;4.30;;;;;;;;;;5113069;28;20462;-52
2023/06/14 06:10:02;;;;;;;5.73;4.73;;;;;;;;;;5120558;28;20465;-54
2023/06/14 06:12:29;;;;;;;6.73;4.33;;;;;;;;;;5134347;28;20527;-48
2023/06/14 06:14:57;;;;;;;6.60;5.00;;;;;;;;;;5120079;28;20465;-47
2023/06/14 06:17:26;;;;;;;8.30;4.23;;;17.90;99.90;;;;;;5127766;28;20465;-55
2023/06/14 06:19:53;;;;;;;7.13;4.60;;;;;;;;;;5128062;28;20440;-51
2023/06/14 06:22:20;;;;;;;8.27;4.90;;;;;;;;;;5123482;28;20452;-55
2023/06/14 06:24:47;;;;;;;7.07;4.93;;;;;;;;;;5122712;28;20452;-52
2023/06/14 06:27:15;;;;;;;5.77;4.80;;;;;;;;;;5135093;28;20496;-54
2023/06/14 06:29:43;;;;;;;5.20;4.53;;;18.10;99.90;;;;;;5117391;28;20459;-51
2023/06/14 06:32:11;;;;;;;7.40;4.87;;;;;;;;;;5138823;28;20480;-53
2023/06/14 06:34:39;;;;;;;6.57;4.77;;;18.00;99.90;;;;;;5135724;28;20468;-51
2023/06/14 06:37:07;;;;;;;5.57;4.37;;;17.90;99.90;;;;;;5128943;28;20453;-55
2023/06/14 06:39:34;;;;;;;6.43;5.33;;;;;;;;;;5128575;28;20548;-55
2023/06/14 06:42:01;;;;;;;5.83;5.10;;;;;;;;;;5127620;28;20457;-55
2023/06/14 06:44:29;;;;;;;13.50;5.47;;;;;;;;;;5125291;28;20476;-50
2023/06/14 06:46:56;;;;;;;5.53;4.40;;;;;;;;;;5130060;28;20488;-53
2023/06/14 06:49:23;;;;;;;9.37;5.67;;;;;;;;;;5136791;28;20491;-54
2023/06/14 06:52:02;;;;;;;8.83;5.40;;;17.90;99.90;;;;;;5136621;28;20480;-54
2023/06/14 06:54:30;;;;;;;7.13;5.00;;;18.20;99.90;;;;;;5136658;28;20432;-54
2023/06/14 06:56:57;;;;;;;7.03;4.63;;;;;;;;;;5136365;28;20498;-51
2023/06/14 06:59:24;;;;;;;6.30;4.80;;;;;;;;;;5132795;28;20432;-52
2023/06/14 07:01:51;;;;;;;9.93;4.80;;;;;;;;;;5122740;28;20497;-52
2023/06/14 07:04:18;;;;;;;6.53;4.37;;;18.20;99.90;;;;;;5117951;28;20499;-54
2023/06/14 07:06:46;;;;;;;8.37;4.60;;;;;;;;;;5116721;28;20544;-48
2023/06/14 07:09:15;;;;;;;6.70;4.03;;;19.10;99.90;;;;;;5135351;28;20453;-50
2023/06/14 07:11:43;;;;;;;4.87;3.97;;;;;;;;;;5139410;28;20433;-52
2023/06/14 07:14:12;;;;;;;8.73;4.70;;;19.00;99.90;;;;;;5140073;28;20469;-54
2023/06/14 07:16:40;;;;;;;5.83;4.20;;;;;;;;;;5139847;28;20918;-55
2023/06/14 07:19:09;;;;;;;7.07;5.07;;;;;;;;;;5139571;28;20426;-54
2023/06/14 07:21:37;;;;;;;5.83;4.53;;;20.20;99.90;;;;;;5138769;28;20505;-46
2023/06/14 07:24:04;;;;;;;10.60;4.17;;;19.40;99.90;;;;;;5137326;28;20432;-50
2023/06/14 07:26:33;;;;;;;11.53;4.90;;;19.80;99.90;;;;;;5138893;28;20551;-53
2023/06/14 07:29:00;;;;;;;10.00;4.23;;;20.20;99.90;;;;;;5139420;28;20452;-57
2023/06/14 07:31:27;;;;;;;5.90;3.90;;;20.20;99.90;;;;;;5137519;28;20482;-56
2023/06/14 07:33:54;;;;;;;6.13;4.53;;;;;;;;;;5133456;28;20428;-54
2023/06/14 07:36:21;;;;;;;4.57;3.90;;;21.20;99.90;;;;;;5139039;28;20432;-47
2023/06/14 07:38:48;;;;;;;12.43;4.13;;;22.10;99.90;;;;;;5139059;28;20420;-54
2023/06/14 07:41:15;;;;;;;6.03;3.30;;;;;;;;;;5137982;28;20468;-55
2023/06/14 07:43:43;;;;;;;3.83;3.40;;;23.70;99.90;;;;;;5138039;28;20464;-52
2023/06/14 07:46:11;;;;;;;4.10;3.80;;;;;;;;;;5138204;28;20468;-56
2023/06/14 07:48:37;;;;;;;5.30;4.27;;;23.10;99.90;;;;;;5130455;28;20445;-57
2023/06/14 07:51:05;;;;;;;4.17;3.57;;;;;;;;;;5136524;28;20472;-56
2023/06/14 07:53:31;;;;;;;6.00;4.73;;;22.70;99.90;;;;;;5137563;28;20480;-55
2023/06/14 07:55:59;;;;;;;6.70;4.87;;;;;;;;;;5134969;28;20456;-57
2023/06/14 07:58:26;;;;;;;5.67;4.30;;;22.20;99.90;;;;;;5133146;28;20454;-53
2023/06/14 08:00:55;;;;;;;9.53;4.60;;;21.80;99.90;;;;;;5137526;28;20524;-55
2023/06/14 08:03:22;;;;;;;6.17;4.83;;;21.90;99.90;;;;;;5137624;28;20440;-51
2023/06/14 08:05:49;;;;;;;5.50;3.80;;;21.60;99.90;;;;;;5136821;28;20448;-51
2023/06/14 08:08:16;;;;;;;10.80;4.60;;;;;;;;;;5137567;28;20443;-53
2023/06/14 08:10:43;;;;;;;10.63;4.60;;;;;;;;;;5129958;28;20478;-56
2023/06/14 08:13:11;;;;;;;7.50;4.33;;;;;;;;;;5135730;28;20452;-54
2023/06/14 08:15:38;;;;;;;9.00;4.60;;;;;;;;;;5134610;28;20464;-54
2023/06/14 08:18:06;;;;;;;7.03;4.90;;;21.50;99.90;;;;;;5131787;28;20489;-55
2023/06/14 08:20:34;;;;;;;6.53;4.27;;;21.20;99.90;;;;;;5132223;28;20610;-52
2023/06/14 08:23:01;;;;;;;6.47;4.10;;;;;;;;;;5133181;28;20470;-53
2023/06/14 08:25:28;;;;;;;7.53;3.70;;;21.20;99.90;;;;;;5131470;28;20524;-52
2023/06/14 08:27:55;;;;;;;5.37;4.03;;;;;;;;;;5138106;28;20468;-48
2023/06/14 08:30:25;;;;;;;8.50;3.23;;;21.40;99.90;;;;;;5137973;28;20483;-56
2023/06/14 08:32:55;;;;;;;6.60;4.27;;;;;;;;;;5138300;28;20721;-55
2023/06/14 08:35:23;;;;;;;5.07;4.07;;;22.00;99.90;;;;;;5137656;28;20424;-57
2023/06/14 08:37:50;;;;;;;8.03;3.53;;;22.20;99.90;;;;;;5137944;28;20448;-55
2023/06/14 08:40:21;;;;;;;8.63;4.30;;;21.90;99.90;;;;;;5137487;28;20460;-54
2023/06/14 08:42:52;;;;;;;4.73;3.70;;;22.00;99.90;;;;;;5137723;28;20463;-55
2023/06/14 08:45:19;;;;;;;6.83;3.10;;;;;;;;;;5137909;28;20492;-53
2023/06/14 08:47:51;;;;;;;8.60;4.00;;;21.90;99.90;;;;;;5137574;28;20479;-56
2023/06/14 08:50:20;;;;;;;5.20;3.73;;;21.70;99.90;;;;;;5137723;28;20460;-59
2023/06/14 08:52:52;;;;;;;3.80;3.13;;;21.70;99.90;;;;;;5137448;28;20421;-56
2023/06/14 08:55:20;;;;;;;6.10;3.50;;;21.70;99.90;;;;;;5137157;28;20480;-56
2023/06/14 08:57:49;;;;;;;10.07;4.57;;;21.50;99.90;;;;;;5136912;28;20465;-55
2023/06/14 09:00:17;;;;;;;6.10;4.60;;;21.50;99.90;;;;;;5137444;28;20428;-57
2023/06/14 09:02:44;;;;;;;4.60;3.57;;;;;;;;;;5135800;28;20460;-55
2023/06/14 09:05:13;;;;;;;5.60;3.57;;;;;;;;;;5137484;28;20428;-55
2023/06/14 09:07:41;;;;;;;7.83;3.63;;;22.20;99.90;;;;;;5136932;28;20485;-54
2023/06/14 09:10:11;;;;;;;6.17;3.60;;;22.60;99.90;;;;;;5136958;28;20439;-53
2023/06/14 09:12:39;;;;;;;4.50;2.80;;;;;;;;;;5137046;28;20448;-53
2023/06/14 09:15:08;;;;;;;5.50;3.23;;;22.60;99.90;;;;;;5135597;28;20536;-53
2023/06/14 09:17:35;;;;;;;4.73;4.10;;;22.70;99.90;;;;;;5135366;28;20433;-56
2023/06/14 09:20:06;;;;;;;4.40;3.60;;;23.00;99.90;;;;;;5137108;28;20528;-49
2023/06/14 09:22:33;;;;;;;5.63;3.43;;;22.40;99.90;;;;;;5136686;28;20452;-49
2023/06/14 09:25:00;;;;;;;4.50;3.93;;;;;;;;;;5136841;28;20893;-48
2023/06/14 09:27:29;;;;;;;3.93;3.37;;;22.20;99.90;;;;;;5129717;28;20487;-51
2023/06/14 09:29:56;;;;;;;5.20;3.40;;;;;;;;;;5136764;28;20425;-54
2023/06/14 09:32:26;;;;;;;5.10;4.10;;;22.30;99.90;;;;;;5137043;28;20460;-50
2023/06/14 09:34:53;;;;;;;6.13;3.40;;;22.10;99.90;;;;;;5136765;28;20421;-56
2023/06/14 09:37:30;;;;;;;5.03;3.37;;;22.10;99.90;;;;;;5136628;28;20523;-53
2023/06/14 09:39:59;;;;;;;5.60;2.90;;;;;;;;;;5136207;28;20476;-53
2023/06/14 09:42:28;;;;;;;5.17;3.27;;;;;;;;;;5137211;28;20424;-53
2023/06/14 09:45:05;;;;;;;5.70;3.30;;;22.40;99.90;;;;;;5136087;28;20469;-52
2023/06/14 09:47:32;;;;;;;4.60;2.97;;;;;;;;;;5137362;28;20464;-48
2023/06/14 09:50:00;;;;;;;3.40;2.60;;;22.60;99.90;;;;;;5136985;28;20441;-53
2023/06/14 09:52:29;;;;;;;4.43;3.50;;;22.80;99.90;;;;;;5133633;28;20483;-58
2023/06/14 09:54:56;;;;;;;6.00;4.17;;;22.90;99.90;;;;;;5136107;28;20412;-55
2023/06/14 09:57:25;;;;;;;6.00;3.50;;;22.90;99.90;;;;;;5136321;28;20472;-56
2023/06/14 09:59:57;;;;;;;5.10;3.53;;;22.90;99.90;;;;;;5136262;28;20467;-57
2023/06/14 10:02:31;;;;;;;5.63;2.90;;;22.80;99.90;;;;;;5135980;28;20469;-56
2023/06/14 10:05:05;;;;;;;4.90;3.13;;;22.80;99.90;;;;;;5135625;28;20471;-56
2023/06/14 10:07:36;;;;;;;4.33;3.30;;;22.90;99.90;;;;;;5141347;28;20478;-54
2023/06/14 10:10:04;;;;;;;7.20;4.60;;;22.60;99.90;;;;;;5138931;28;20498;-56
2023/06/14 10:12:31;;;;;;;6.27;4.70;;;;;;;;;;5137257;28;20424;-54
2023/06/14 10:15:01;;;;;;;5.20;4.47;;;22.60;99.90;;;;;;5140160;28;20437;-59
2023/06/14 10:17:36;;;;;;;6.50;3.63;;;22.50;99.90;;;;;;5139739;28;20448;-58
2023/06/14 10:20:18;;;;;;;3.80;3.13;;;22.30;99.90;;;;;;5136977;28;20412;-54
2023/06/14 10:22:50;;;;;;;6.43;3.63;;;22.40;99.90;;;;;;5136413;28;20464;-53
2023/06/14 10:25:29;;;;;;;4.40;3.20;;;22.40;99.90;;;;;;5139242;28;20441;-53
2023/06/14 10:28:04;;;;;;;5.57;3.00;;;22.40;99.90;;;;;;5139537;28;20964;-57
2023/06/14 10:30:31;;;;;;;3.43;3.03;;;;;;;;;;5136379;28;20424;-57
2023/06/14 10:33:10;;;;;;;5.30;3.77;;;22.10;99.90;;;;;;5138482;28;20432;-58
2023/06/14 10:35:37;;;;;;;6.10;2.97;;;;;;;;;;5138034;28;20531;-57
2023/06/14 10:38:12;;;;;;;4.23;3.83;;;21.40;99.90;;;;;;5139198;28;20538;-57
2023/06/14 10:40:40;;;;;;;4.33;3.50;;;21.80;99.90;;;;;;5139879;28;20440;-56
2023/06/14 10:43:23;;;;;;;8.00;4.10;;;22.10;99.90;;;;;;5137413;28;20409;-56
2023/06/14 10:46:18;;;;;;;4.40;3.10;;;21.80;99.90;;;;;;5137580;28;20474;-55
2023/06/14 10:48:46;;;;;;;6.43;3.67;;;21.80;99.90;;;;;;5138972;28;20461;-54
2023/06/14 10:51:20;;;;;;;6.70;3.43;;;21.80;99.90;;;;;;5137973;28;20441;-52
2023/06/14 10:53:48;;;;;;;4.97;3.43;;;22.20;99.90;;;;;;5139330;28;20471;-55
2023/06/14 10:56:30;;;;;;;4.47;3.80;;;22.00;99.90;;;;;;5139183;28;20406;-51
2023/06/14 10:58:58;;;;;;;3.90;3.00;;;22.30;99.90;;;;;;5133733;28;20427;-54
2023/06/14 11:01:36;;;;;;;4.37;3.83;;;22.20;99.90;;;;;;5136574;28;20440;-56
2023/06/14 11:04:14;;;;;;;6.70;3.03;;;22.50;99.90;;;;;;5139609;28;20504;-52
2023/06/14 11:06:52;;;;;;;6.30;3.23;;;22.40;99.90;;;;;;5139625;28;20464;-56
2023/06/14 11:09:44;;;;;;;6.07;4.10;;;22.30;99.90;;;;;;5139737;28;20421;-54
2023/06/14 11:12:13;;;;;;;9.23;3.30;;;22.50;99.90;;;;;;5130525;28;20448;-52
2023/06/14 11:14:40;;;;;;;4.77;3.23;;;22.60;99.90;;;;;;5139947;28;20435;-52
2023/06/14 11:17:08;;;;;;;4.70;3.17;;;22.90;99.90;;;;;;5138699;28;20432;-55
2023/06/14 11:19:36;;;;;;;7.00;4.50;;;23.00;99.90;;;;;;5138973;28;20471;-54
2023/06/14 11:22:03;;;;;;;5.10;3.73;;;;;;;;;;5138969;28;20535;-52
2023/06/14 11:24:30;;;;;;;5.73;2.50;;;;;;;;;;5138503;28;20495;-53
2023/06/14 11:26:58;;;;;;;5.47;3.57;;;23.90;99.90;;;;;;5138433;28;20471;-56
2023/06/14 11:29:25;;;;;;;4.07;3.40;;;23.50;99.90;;;;;;5138741;28;20436;-56
2023/06/14 11:31:52;;;;;;;6.03;3.90;;;23.70;99.90;;;;;;5137641;28;20476;-54
2023/06/14 11:34:19;;;;;;;6.67;3.40;;;23.80;99.90;;;;;;5138456;28;20432;-56
2023/06/14 11:36:50;;;;;;;7.80;3.40;;;23.90;99.90;;;;;;5138018;28;20429;-53
2023/06/14 11:39:25;;;;;;;6.33;3.03;;;23.90;99.90;;;;;;5138257;28;20432;-54
2023/06/14 11:41:52;;;;;;;5.07;3.23;;;23.90;99.90;;;;;;5138326;28;20459;-57
2023/06/14 11:44:18;;;;;;;6.67;3.77;;;23.80;99.90;;;;;;5136399;28;20574;-54
2023/06/14 11:46:47;;;;;;;4.40;3.70;;;24.10;99.90;;;;;;5133120;28;20428;-50
2023/06/14 11:49:14;;;;;;;3.53;3.00;;;;;;;;;;5138564;28;20436;-52
2023/06/14 11:51:44;;;;;;;4.10;3.30;;;24.10;98.60;;;;;;5133964;28;20451;-59
2023/06/14 11:54:13;;;;;;;5.70;3.60;;;24.00;99.90;;;;;;5131593;28;20444;-54
2023/06/14 11:56:40;;;;;;;9.63;3.63;;;;;;;;;;5130991;28;20548;-50
2023/06/14 11:59:07;;;;;;;3.90;2.80;;;;;;;;;;5136104;28;20511;-52
2023/06/14 12:01:38;;;;;;;6.57;3.30;;;24.30;96.70;;;;;;5137864;28;20941;-51
2023/06/14 12:04:05;;;;;;;3.70;2.90;;;24.50;99.90;;;;;;5137140;28;20456;-49
2023/06/14 12:06:35;;;;;;;6.63;3.40;;;25.10;99.90;;;;;;5130252;28;20913;-53
2023/06/14 12:09:06;;;;;;;5.10;3.60;;;24.70;99.90;;;;;;5130905;28;21032;-48
2023/06/14 12:11:36;;;;;;;4.10;3.70;;;25.00;99.90;;;;;;5137346;28;20416;-52
2023/06/14 12:14:07;;;;;;;3.93;3.50;;;24.90;99.90;;;;;;5137544;28;20441;-49
2023/06/14 12:16:36;;;;;;;4.70;3.70;;;25.00;99.90;;;;;;5137251;28;20448;-56
2023/06/14 12:19:13;;;;;;;4.30;3.10;;;24.80;94.70;;;;;;5134314;28;20417;-50
2023/06/14 12:21:41;;;;;;;4.03;2.90;;;25.40;99.90;;;;;;5135914;28;20467;-52
2023/06/14 12:24:11;;;;;;;4.10;2.93;;;25.50;99.90;;;;;;5130722;28;20449;-57
2023/06/14 12:26:42;;;;;;;7.90;3.80;;;25.40;99.90;;;;;;5130012;28;20727;-53
2023/06/14 12:29:09;;;;;;;4.53;4.10;;;25.20;99.90;;;;;;5128170;28;20464;-56
2023/06/14 12:31:36;;;;;;;5.50;4.27;;;25.40;99.90;;;;;;5128901;28;20452;-56
2023/06/14 12:34:04;;;;;;;4.70;3.50;;;25.20;90.10;;;;;;5129283;28;20464;-59
2023/06/14 12:36:32;;;;;;;5.70;3.70;;;;;;;;;;5136204;28;20468;-56
2023/06/14 12:38:59;;;;;;;4.00;3.50;;;;;;;;;;5136054;28;20440;-60
2023/06/14 12:41:27;;;;;;;11.63;3.60;;;25.20;99.90;;;;;;5137246;28;20439;-53
2023/06/14 12:43:57;;;;;;;4.73;3.10;;;25.40;89.30;;;;;;5136488;28;20443;-47
2023/06/14 12:46:25;;;;;;;11.90;4.60;;;;;;;;;;5136458;28;20455;-51
2023/06/14 12:48:52;;;;;;;5.77;3.83;;;;;;;;;;5136099;28;20532;-52
2023/06/14 12:51:19;;;;;;;3.40;2.73;;;;;;;;;;5136824;28;20445;-56
2023/06/14 12:53:49;;;;;;;4.83;3.07;;;25.70;99.90;;;;;;5136570;28;20495;-54
2023/06/14 12:56:16;;;;;;;4.23;3.47;;;25.70;99.90;;;;;;5136812;28;20420;-57
2023/06/14 12:58:43;;;;;;;4.97;3.33;;;;;;;;;;5136396;28;20449;-53
2023/06/14 13:01:12;;;;;;;5.32;3.30;;;26.30;80.50;;;;;;5135483;28;20486;-53
2023/06/14 13:03:39;;;;;;;3.43;2.80;;;;;;;;;;5136558;28;20206;-57
2023/06/14 13:06:06;;;;;;;4.97;3.10;;;26.40;99.60;;;;;;5136651;28;20432;-55
2023/06/14 13:08:33;;;;;;;3.50;2.80;;;26.50;99.90;;;;;;5136256;28;20496;-58
2023/06/14 13:11:00;;;;;;;6.77;3.07;;;26.50;98.30;;;;;;5136377;28;20464;-56
2023/06/14 13:13:29;;;;;;;4.07;3.30;;;26.90;75.50;;;;;;5136628;28;20484;-56
2023/06/14 13:15:56;;;;;;;3.10;2.80;;;26.60;99.90;;;;;;5136059;28;20477;-56
2023/06/14 13:18:24;;;;;;;5.13;3.30;;;;;;;;;;5135718;28;20452;-53
2023/06/14 13:20:51;;;;;;;6.20;3.27;;;26.50;97.30;;;;;;5135662;28;20445;-54
2023/06/14 13:23:19;;;;;;;12.13;3.10;;;;;;;;;;5135612;28;20456;-53
2023/06/14 13:25:45;;;;;;;9.10;3.37;;;26.10;97.90;;;;;;5135603;28;20440;-50